Time;durP1;ratioP1;P1;durP2;ratioP2;P2;SDS_P1;SDS_P2;PMS_P1;PMS_P2;Temp;Humidity;BMP_temperature;BMP_pressure;BME280_temperature;BME280_humidity;BME280_pressure;Samples;Min_cycle;Max_cycle;Signal;HPM_P1;HPM_P2
2022/01/13 00:00:48;;;;;;;51.85;18.48;;;;;;;1.35;100.00;103735.59;2569311;30;137098;-40
2022/01/13 00:03:16;;;;;;;58.65;19.27;;;;;;;1.35;100.00;103736.44;2570329;30;136601;-39
2022/01/13 00:05:44;;;;;;;;;;;;;;;1.34;100.00;103740.06;2568960;30;137036;-40
2022/01/13 00:08:11;;;;;;;48.20;18.10;;;;;;;1.39;100.00;103742.53;2570665;30;137383;-39
2022/01/13 00:10:39;;;;;;;52.28;18.63;;;;;;;1.41;100.00;103748.69;2570391;30;136981;-39
2022/01/13 00:13:10;;;;;;;48.72;17.67;;;;;;;1.40;100.00;103744.28;2570319;30;138080;-39
2022/01/13 00:18:14;;;;;;;54.10;18.10;;;;;;;1.43;100.00;103736.03;2569852;30;138189;-39
2022/01/13 00:26:14;;;;;;;44.50;17.23;;;;;;;1.38;100.00;103738.09;2572018;30;137722;-39
2022/01/13 00:28:45;;;;;;;52.50;18.52;;;;;;;1.37;100.00;103741.75;2567042;30;138076;-39
2022/01/13 00:31:13;;;;;;;50.97;17.85;;;;;;;1.38;100.00;103732.72;2569104;30;137013;-39
2022/01/13 00:33:44;;;;;;;50.95;18.88;;;;;;;1.35;100.00;103740.97;2567972;30;138896;-39
2022/01/13 00:36:14;;;;;;;49.97;16.75;;;;;;;1.35;100.00;103739.13;2571131;30;138350;-39
2022/01/13 00:38:42;;;;;;;49.88;16.85;;;;;;;1.33;100.00;103741.03;2569716;30;137491;-40
2022/01/13 00:41:09;;;;;;;;;;;;;;;1.35;100.00;103738.28;2571696;30;137544;-39
2022/01/13 00:43:40;;;;;;;50.97;17.77;;;;;;;1.27;100.00;103738.66;2568291;30;138622;-39
2022/01/13 00:46:19;;;;;;;57.40;21.00;;;;;;;1.26;100.00;103742.31;2571856;30;137478;-41
2022/01/13 00:48:47;;;;;;;;;;;;;;;1.30;100.00;103743.88;2567842;30;138370;-41
2022/01/13 00:51:15;;;;;;;62.03;19.05;;;;;;;1.33;100.00;103751.78;2567054;30;137224;-40
2022/01/13 00:53:43;;;;;;;58.40;20.27;;;;;;;1.30;100.00;103746.56;2567355;30;138363;-41
2022/01/13 00:56:12;;;;;;;52.90;19.00;;;;;;;1.27;100.00;103760.19;2567202;30;137466;-41
2022/01/13 00:58:40;;;;;;;53.08;18.60;;;;;;;1.29;100.00;103751.06;2568254;30;139027;-41
2022/01/13 01:01:08;;;;;;;;;;;;;;;1.33;100.00;103753.63;2568929;30;138211;-39
2022/01/13 01:03:37;;;;;;;59.83;20.30;;;;;;;1.33;100.00;103757.16;2567220;30;137519;-41
2022/01/13 01:06:05;;;;;;;55.30;19.02;;;;;;;1.37;100.00;103765.97;2565967;30;138355;-41
2022/01/13 01:08:34;;;;;;;54.55;19.08;;;;;;;1.33;100.00;103762.53;2567882;30;138402;-40
2022/01/13 01:11:03;;;;;;;62.45;20.90;;;;;;;1.35;100.00;103760.66;2565952;30;137686;-41
2022/01/13 01:13:34;;;;;;;61.63;20.75;;;;;;;1.36;100.00;103758.84;2569518;30;139113;-41
2022/01/13 01:16:06;;;;;;;55.08;19.48;;;;;;;1.35;100.00;103762.47;2568788;30;136840;-41
2022/01/13 01:19:27;;;;;;;50.97;18.95;;;;;;;1.27;100.00;103760.19;2566836;30;138654;-41
2022/01/13 01:31:46;;;;;;;51.90;19.08;;;;;;;1.21;100.00;103752.44;2566501;30;136710;-41
2022/01/13 01:36:52;;;;;;;54.00;20.23;;;;;;;1.24;100.00;103754.97;2567607;30;137675;-41
2022/01/13 01:39:20;;;;;;;53.78;19.92;;;;;;;1.24;100.00;103758.50;2568315;30;138890;-41
2022/01/13 01:41:51;;;;;;;59.38;20.10;;;;;;;1.18;100.00;103758.81;2568976;30;136778;-41
2022/01/13 01:44:28;;;;;;;57.47;20.45;;;;;;;1.17;100.00;103754.41;2568236;30;138479;-41
2022/01/13 01:46:58;;;;;;;59.33;20.48;;;;;;;1.15;100.00;103754.47;2567943;30;137527;-41
2022/01/13 01:49:27;;;;;;;60.05;20.70;;;;;;;1.19;100.00;103755.19;2567362;30;138858;-41
2022/01/13 01:52:00;;;;;;;60.38;20.77;;;;;;;1.18;100.00;103764.22;2567941;30;137516;-41
2022/01/13 01:54:29;;;;;;;60.28;19.85;;;;;;;1.14;100.00;103768.84;2567209;30;137331;-41
2022/01/13 01:56:57;;;;;;;49.78;19.75;;;;;;;1.17;100.00;103777.72;2565694;30;137248;-41
2022/01/13 01:59:30;;;;;;;54.80;20.35;;;;;;;1.18;100.00;103774.97;2568369;30;138401;-41
2022/01/13 02:01:58;;;;;;;54.85;20.50;;;;;;;1.20;100.00;103783.81;2568377;30;136732;-41
2022/01/13 02:04:27;;;;;;;53.50;20.48;;;;;;;1.18;100.00;103785.72;2568616;30;138191;-41
2022/01/13 02:06:56;;;;;;;53.40;20.42;;;;;;;1.18;100.00;103776.78;2567089;30;137626;-41
2022/01/13 02:09:24;;;;;;;53.28;20.38;;;;;;;1.20;100.00;103783.81;2566759;30;138989;-41
2022/01/13 02:11:57;;;;;;;57.00;20.45;;;;;;;1.18;100.00;103782.16;2569249;30;137254;-41
2022/01/13 02:16:59;;;;;;;52.55;20.70;;;;;;;1.18;100.00;103776.78;2568960;30;137730;-41
2022/01/13 02:19:27;;;;;;;52.03;21.10;;;;;;;1.15;100.00;103775.13;2565919;30;137103;-41
2022/01/13 02:21:55;;;;;;;64.78;23.92;;;;;;;1.13;100.00;103777.88;2567434;30;137750;-41
2022/01/13 02:24:23;;;;;;;;;;;;;;;1.13;100.00;103772.50;2569238;30;136744;-41
2022/01/13 02:26:51;;;;;;;59.08;20.73;;;;;;;1.07;100.00;103766.59;2569029;30;137118;-41
2022/01/13 02:29:19;;;;;;;58.95;22.38;;;;;;;1.06;100.00;103765.69;2566888;30;138339;-41
2022/01/13 02:31:47;;;;;;;;;;;;;;;1.08;100.00;103761.09;2567358;30;138140;-41
2022/01/13 02:34:15;;;;;;;52.67;19.25;;;;;;;1.06;100.00;103754.06;2568921;30;138246;-41
2022/01/13 02:36:46;;;;;;;58.75;20.27;;;;;;;1.07;100.00;103755.81;2568368;30;137543;-41
2022/01/13 02:39:14;;;;;;;59.78;21.65;;;;;;;1.03;100.00;103759.59;2566306;30;138629;-41
2022/01/13 02:41:43;;;;;;;52.67;20.25;;;;;;;1.05;100.00;103765.75;2566043;30;137916;-41
2022/01/13 02:44:16;;;;;;;58.05;21.48;;;;;;;1.07;100.00;103756.69;2568330;30;138298;-41
2022/01/13 02:49:21;;;;;;;54.13;21.05;;;;;;;1.02;100.00;103753.34;2567571;30;138146;-41
2022/01/13 02:51:51;;;;;;;58.63;21.42;;;;;;;1.02;100.00;103755.16;2567583;30;138312;-41
2022/01/13 02:54:19;;;;;;;53.15;21.70;;;;;;;0.99;100.00;103759.75;2567748;30;138153;-41
2022/01/13 02:56:47;;;;;;;54.33;21.55;;;;;;;0.94;100.00;103753.75;2567383;30;137435;-41
2022/01/13 02:59:15;;;;;;;;;;;;;;;0.96;100.00;103750.97;2567895;30;138237;-40
2022/01/13 03:01:43;;;;;;;50.88;19.83;;;;;;;1.00;100.00;103747.19;2567371;30;136769;-40
2022/01/13 03:04:12;;;;;;;57.60;22.25;;;;;;;0.99;100.00;103732.00;2567116;30;137924;-40
2022/01/13 03:06:41;;;;;;;55.67;22.27;;;;;;;1.04;100.00;103731.75;2566466;30;136950;-41
2022/01/13 03:09:13;;;;;;;57.13;23.60;;;;;;;1.03;100.00;103732.69;2568737;30;138162;-41
2022/01/13 03:11:43;;;;;;;57.17;22.77;;;;;;;1.04;100.00;103735.31;2568210;30;137418;-41
2022/01/13 03:14:12;;;;;;;56.45;21.40;;;;;;;1.02;100.00;103737.22;2567843;30;139180;-41
2022/01/13 03:16:43;;;;;;;53.53;21.67;;;;;;;0.99;100.00;103743.63;2565782;30;137524;-41
2022/01/13 03:19:11;;;;;;;57.05;22.85;;;;;;;0.96;100.00;103746.47;2567199;30;138633;-40
2022/01/13 03:21:39;;;;;;;50.58;20.83;;;;;;;1.00;100.00;103744.50;2567147;30;137470;-41
2022/01/13 03:24:09;;;;;;;53.60;21.70;;;;;;;0.99;100.00;103746.31;2569017;30;137170;-41
2022/01/13 03:26:37;;;;;;;56.78;21.65;;;;;;;0.93;100.00;103752.00;2569055;30;137837;-40
2022/01/13 03:31:41;;;;;;;58.63;22.48;;;;;;;0.98;100.00;103749.94;2565504;30;137167;-41
2022/01/13 03:34:09;;;;;;;53.75;20.60;;;;;;;0.96;100.00;103741.09;2567792;30;138233;-41
2022/01/13 03:36:37;;;;;;;52.10;20.58;;;;;;;0.89;100.00;103733.41;2568420;30;137568;-41
2022/01/13 03:39:06;;;;;;;;;;;;;;;0.91;100.00;103736.88;2568454;30;138273;-40
2022/01/13 03:41:35;;;;;;;51.40;20.00;;;;;;;0.88;100.00;103742.41;2565438;30;136967;-40
2022/01/13 03:44:07;;;;;;;54.95;21.58;;;;;;;0.84;100.00;103741.72;2568787;30;137013;-40
2022/01/13 03:46:37;;;;;;;57.40;22.45;;;;;;;0.84;100.00;103733.66;2568994;30;136826;-40
2022/01/13 03:49:07;;;;;;;57.78;22.25;;;;;;;0.86;100.00;103739.81;2568261;30;137399;-41
2022/01/13 03:51:50;;;;;;;61.38;23.02;;;;;;;0.83;100.00;103739.97;2568013;30;137013;-40
2022/01/13 03:54:33;;;;;;;59.25;22.08;;;;;;;0.81;100.00;103747.25;2567058;30;139529;-40
2022/01/13 03:57:38;;;;;;;54.60;22.33;;;;;;;0.80;100.00;103750.88;2567267;30;136939;-41
2022/01/13 04:00:57;;;;;;;55.28;21.70;;;;;;;0.77;100.00;103761.75;2567347;30;138325;-40
2022/01/13 04:03:25;;;;;;;57.58;21.85;;;;;;;0.75;100.00;103755.59;2567292;30;137479;-40
2022/01/13 04:06:08;;;;;;;;;;;;;;;0.73;100.00;103749.41;2568417;30;138336;-40
2022/01/13 04:08:36;;;;;;;55.13;20.70;;;;;;;0.66;100.00;103749.72;2568268;30;136653;-41
2022/01/13 04:11:10;;;;;;;;;;;;;;;0.69;100.00;103748.72;2566830;30;138733;-40
2022/01/13 04:16:14;;;;;;;54.72;22.65;;;;;;;0.70;100.00;103737.03;2568346;30;138300;-40
2022/01/13 04:18:44;;;;;;;64.45;22.85;;;;;;;0.70;100.00;103732.50;2569240;30;137355;-41
2022/01/13 04:21:12;;;;;;;57.15;23.05;;;;;;;0.70;100.00;103735.19;2567801;30;138316;-41
2022/01/13 04:23:40;;;;;;;53.05;22.33;;;;;;;0.69;100.00;103730.75;2567355;30;137195;-41
2022/01/13 04:26:08;;;;;;;55.00;22.27;;;;;;;0.70;100.00;103734.34;2567085;30;138254;-40
2022/01/13 04:28:37;;;;;;;59.28;24.02;;;;;;;0.69;100.00;103740.66;2567513;30;137542;-41
2022/01/13 04:31:06;;;;;;;65.43;23.55;;;;;;;0.65;100.00;103734.56;2565887;30;138738;-40
2022/01/13 04:33:36;;;;;;;62.40;24.63;;;;;;;0.65;100.00;103728.28;2568222;30;137453;-40
2022/01/13 04:36:06;;;;;;;55.40;23.05;;;;;;;0.63;100.00;103736.44;2565072;30;138275;-41
2022/01/13 04:38:34;;;;;;;60.05;22.77;;;;;;;0.65;100.00;103723.81;2569682;30;137508;-41
2022/01/13 04:41:04;;;;;;;;;;;;;;;0.63;100.00;103727.50;2567408;30;138966;-41
2022/01/13 04:43:33;;;;;;;62.22;21.77;;;;;;;0.67;100.00;103726.44;2567169;30;136962;-41
2022/01/13 04:46:01;;;;;;;61.55;22.00;;;;;;;0.62;100.00;103723.06;2567188;30;138578;-40
2022/01/13 04:48:29;;;;;;;61.40;22.58;;;;;;;0.55;100.00;103723.38;2568573;30;137014;-41
2022/01/13 04:50:57;;;;;;;60.00;22.65;;;;;;;0.58;100.00;103725.06;2568525;30;137505;-41
2022/01/13 04:53:24;;;;;;;56.83;21.92;;;;;;;0.57;100.00;103716.09;2568227;30;138371;-41
2022/01/13 04:55:57;;;;;;;61.35;22.20;;;;;;;0.63;100.00;103720.31;2566934;30;139551;-40
2022/01/13 04:58:26;;;;;;;61.65;23.85;;;;;;;0.60;100.00;103727.66;2566748;30;137690;-41
2022/01/13 05:00:54;;;;;;;67.95;24.42;;;;;;;0.57;100.00;103716.09;2567958;30;137485;-40
2022/01/13 05:03:22;;;;;;;57.65;23.13;;;;;;;0.52;100.00;103723.53;2567956;30;137123;-41
2022/01/13 05:05:50;;;;;;;62.15;23.90;;;;;;;0.57;100.00;103710.72;2568194;30;137554;-41
2022/01/13 05:08:18;;;;;;;;;;;;;;;0.60;100.00;103709.72;2569470;30;137106;-41
2022/01/13 05:10:46;;;;;;;63.20;22.45;;;;;;;0.61;100.00;103700.72;2569249;30;138196;-40
2022/01/13 05:13:14;;;;;;;;;;;;;;;0.56;100.00;103702.78;2567692;30;136945;-41
2022/01/13 05:15:44;;;;;;;71.35;22.58;;;;;;;0.46;100.00;103705.03;2567741;30;138966;-40
2022/01/13 05:21:06;;;;;;;65.75;23.40;;;;;;;0.45;100.00;103692.53;2567716;30;138142;-40
2022/01/13 05:23:34;;;;;;;70.45;23.58;;;;;;;0.40;100.00;103687.38;2567934;30;137594;-40
2022/01/13 05:26:02;;;;;;;63.53;23.05;;;;;;;0.38;100.00;103691.97;2567682;30;137462;-41
2022/01/13 05:28:30;;;;;;;62.95;22.80;;;;;;;0.29;100.00;103703.16;2568687;30;136907;-40
2022/01/13 05:30:58;;;;;;;64.53;23.25;;;;;;;0.18;100.00;103681.31;2568031;30;138153;-40
2022/01/13 05:33:26;;;;;;;;;;;;;;;0.34;100.00;103703.81;2566861;30;138368;-40
2022/01/13 05:35:54;;;;;;;63.47;22.73;;;;;;;0.31;100.00;103709.34;2567361;30;138228;-40
2022/01/13 05:38:22;;;;;;;;;;;;;;;0.28;100.00;103725.59;2568243;30;138575;-40
2022/01/13 05:40:49;;;;;;;57.65;21.73;;;;;;;0.26;100.00;103719.41;2565656;30;139268;-40
2022/01/13 05:43:17;;;;;;;;;;;;;;;0.25;100.00;103709.59;2567792;30;137555;-41
2022/01/13 05:45:45;;;;;;;62.63;22.52;;;;;;;0.26;100.00;103703.28;2566961;30;139371;-40
2022/01/13 05:48:13;;;;;;;66.45;24.08;;;;;;;0.22;100.00;103704.38;2567801;30;137576;-41
2022/01/13 05:50:41;;;;;;;60.40;22.20;;;;;;;0.23;100.00;103701.63;2567948;30;138394;-41
2022/01/13 05:53:09;;;;;;;;;;;;;;;0.25;100.00;103689.00;2565948;30;137434;-41
2022/01/13 05:55:39;;;;;;;69.97;23.85;;;;;;;0.26;100.00;103693.44;2566972;30;137921;-41
2022/01/13 05:58:07;;;;;;;63.72;23.80;;;;;;;0.27;100.00;103692.47;2567966;30;136765;-41
2022/01/13 06:00:35;;;;;;;68.72;22.80;;;;;;;0.30;100.00;103693.28;2567602;30;137111;-41
2022/01/13 06:03:04;;;;;;;62.78;22.70;;;;;;;0.29;100.00;103689.75;2567102;30;138165;-41
2022/01/13 06:05:35;;;;;;;60.38;22.55;;;;;;;0.31;100.00;103693.22;2567887;30;138946;-40
2022/01/13 06:08:03;;;;;;;64.72;24.10;;;;;;;0.31;100.00;103690.53;2567850;30;137642;-41
2022/01/13 06:10:31;;;;;;;60.38;22.20;;;;;;;0.32;100.00;103689.59;2567293;30;138973;-40
2022/01/13 06:12:59;;;;;;;62.47;22.58;;;;;;;0.27;100.00;103684.44;2567996;30;137544;-41
2022/01/13 06:15:27;;;;;;;;;;;;;;;0.28;100.00;103688.00;2567441;30;138136;-40
2022/01/13 06:17:56;;;;;;;70.53;23.25;;;;;;;0.25;100.00;103682.75;2567142;30;137134;-41
2022/01/13 06:20:24;;;;;;;72.28;24.05;;;;;;;0.28;100.00;103683.47;2568208;30;138320;-40
2022/01/13 06:22:53;;;;;;;71.78;24.50;;;;;;;0.28;100.00;103688.84;2567827;30;137813;-41
2022/01/13 06:25:21;;;;;;;68.88;24.05;;;;;;;0.32;100.00;103704.81;2568266;30;137185;-40
2022/01/13 06:27:49;;;;;;;66.70;24.40;;;;;;;0.27;100.00;103697.00;2567667;30;137623;-40
2022/01/13 06:30:37;;;;;;;65.13;23.98;;;;;;;0.26;100.00;103692.53;2566946;30;139146;-41
2022/01/13 06:33:05;;;;;;;;;;;;;;;0.26;100.00;103690.75;2567537;30;137658;-41
2022/01/13 06:35:33;;;;;;;62.67;22.58;;;;;;;0.20;100.00;103696.41;2567568;30;138419;-41
2022/01/13 06:38:00;;;;;;;;;;;;;;;0.23;100.00;103690.00;2568838;30;137712;-41
2022/01/13 06:40:28;;;;;;;65.85;21.55;;;;;;;0.18;100.00;103692.06;2568208;30;138378;-40
2022/01/13 06:42:56;;;;;;;;;;;;;;;0.20;100.00;103695.53;2566148;30;137717;-41
2022/01/13 06:45:24;;;;;;;79.85;24.75;;;;;;;0.16;100.00;103702.88;2567666;30;137099;-41
2022/01/13 06:48:56;;;;;;;79.22;25.70;;;;;;;0.14;100.00;103705.63;2571297;30;138026;-39
2022/01/13 06:51:24;;;;;;;82.20;28.15;;;;;;;0.13;100.00;103706.56;2570389;30;136957;-39
2022/01/13 06:53:52;;;;;;;85.45;28.63;;;;;;;0.18;100.00;103713.53;2569293;30;137776;-38
2022/01/13 06:56:22;;;;;;;;;;;;;;;0.12;100.00;103712.88;2567255;30;137088;-38
2022/01/13 06:58:50;;;;;;;74.07;24.65;;;;;;;0.17;100.00;103711.78;2570880;30;137273;-38
2022/01/13 07:01:18;;;;;;;85.03;27.77;;;;;;;0.14;100.00;103708.31;2571096;30;137260;-38
2022/01/13 07:03:46;;;;;;;79.20;26.48;;;;;;;0.14;100.00;103702.09;2570951;30;136906;-38
2022/01/13 07:06:14;;;;;;;84.25;27.95;;;;;;;0.10;100.00;103704.03;2569675;30;137873;-38
2022/01/13 07:08:42;;;;;;;87.55;28.00;;;;;;;0.14;100.00;103696.72;2570779;30;137015;-38
2022/01/13 07:11:10;;;;;;;81.65;27.52;;;;;;;0.12;100.00;103699.47;2571617;30;138251;-38
2022/01/13 07:13:38;;;;;;;80.28;28.02;;;;;;;0.13;100.00;103709.25;2568413;30;136989;-38
2022/01/13 07:16:06;;;;;;;78.30;26.02;;;;;;;0.12;100.00;103706.63;2568699;30;139095;-38
2022/01/13 07:18:40;;;;;;;;;;;;;;;0.12;100.00;103709.31;2568940;30;137728;-38
2022/01/13 07:21:16;;;;;;;72.47;23.92;;;;;;;0.14;100.00;103708.31;2569776;30;138106;-39
2022/01/13 07:23:44;;;;;;;81.13;25.90;;;;;;;0.18;100.00;103702.78;2568465;30;138562;-38
2022/01/13 07:26:12;;;;;;;;;;;;;;;0.14;100.00;103702.09;2568519;30;139034;-38
2022/01/13 07:28:40;;;;;;;74.00;24.65;;;;;;;0.13;100.00;103706.56;2570296;30;137575;-38
2022/01/13 07:31:08;;;;;;;78.32;26.67;;;;;;;0.16;100.00;103712.72;2570165;30;138398;-38
2022/01/13 07:33:36;;;;;;;81.38;27.48;;;;;;;0.12;100.00;103710.19;2570141;30;136949;-39
2022/01/13 07:36:04;;;;;;;70.63;25.77;;;;;;;0.06;100.00;103709.59;2569387;30;138285;-39
2022/01/13 07:38:32;;;;;;;75.07;26.40;;;;;;;0.05;100.00;103714.13;2571136;30;137017;-39
2022/01/13 07:41:00;;;;;;;73.72;26.90;;;;;;;0.09;100.00;103723.78;2567771;30;138939;-39
2022/01/13 07:43:28;;;;;;;72.15;25.00;;;;;;;0.06;100.00;103721.25;2568912;30;138522;-38
2022/01/13 07:45:56;;;;;;;74.97;26.33;;;;;;;0.08;100.00;103731.88;2570852;30;138156;-39
2022/01/13 07:48:24;;;;;;;73.25;25.48;;;;;;;0.01;100.00;103728.63;2565782;30;137617;-39
2022/01/13 07:50:53;;;;;;;72.35;25.38;;;;;;;0.02;100.00;103740.22;2569416;30;138185;-38
2022/01/13 07:53:21;;;;;;;78.95;27.40;;;;;;;-0.03;100.00;103741.31;2572011;30;137688;-38
2022/01/13 07:55:49;;;;;;;;;;;;;;;-0.05;100.00;103743.22;2569538;30;138211;-38
2022/01/13 07:58:17;;;;;;;66.30;23.17;;;;;;;-0.05;100.00;103747.69;2567575;30;136912;-39
2022/01/13 08:00:45;;;;;;;71.55;25.13;;;;;;;-0.13;100.00;103731.06;2567952;30;139349;-39
2022/01/13 08:03:13;;;;;;;73.40;23.92;;;;;;;-0.04;100.00;103750.31;2572121;30;138003;-38
2022/01/13 08:05:41;;;;;;;;;;;;;;;-0.03;100.00;103743.13;2568561;30;138521;-38
2022/01/13 08:08:09;;;;;;;61.92;22.83;;;;;;;-0.04;100.00;103746.75;2569833;30;137761;-38
2022/01/13 08:10:37;;;;;;;68.82;22.63;;;;;;;-0.07;100.00;103741.53;2570320;30;139139;-39
2022/01/13 08:13:05;;;;;;;;;;;;;;;-0.04;100.00;103736.00;2570390;30;137517;-38
2022/01/13 08:15:35;;;;;;;63.45;21.70;;;;;;;-0.06;100.00;103740.59;2569937;30;138233;-40
2022/01/13 08:20:50;;;;;;;72.30;23.08;;;;;;;-0.01;100.00;103747.50;2568388;30;137225;-38
2022/01/13 08:23:17;;;;;;;70.95;23.73;;;;;;;-0.06;100.00;103744.16;2571764;30;136652;-38
2022/01/13 08:25:45;;;;;;;71.50;23.45;;;;;;;-0.03;100.00;103746.69;2571244;30;139215;-38
2022/01/13 08:28:13;;;;;;;;;;;;;;;-0.02;100.00;103747.53;2567289;30;137459;-38
2022/01/13 08:30:41;;;;;;;71.78;23.98;;;;;;;0.01;100.00;103747.44;2570224;30;137958;-38
2022/01/13 08:33:09;;;;;;;75.22;26.42;;;;;;;-0.02;100.00;103755.59;2571978;30;138476;-39
2022/01/13 08:35:43;;;;;;;72.55;26.75;;;;;;;0.04;100.00;103755.34;2570712;30;138701;-39
2022/01/13 08:38:19;;;;;;;86.43;26.08;;;;;;;0.10;100.00;103760.41;2566537;30;137757;-38
2022/01/13 08:40:49;;;;;;;88.45;25.88;;;;;;;0.11;100.00;103761.28;2570252;30;137349;-39
2022/01/13 08:43:17;;;;;;;87.10;27.27;;;;;;;0.12;100.00;103765.69;2569776;30;138482;-38
2022/01/13 08:45:45;;;;;;;77.57;26.55;;;;;;;0.19;100.00;103763.63;2569666;30;138132;-39
2022/01/13 08:48:13;;;;;;;;;;;;;;;0.22;100.00;103764.34;2569985;30;137379;-39
2022/01/13 08:50:42;;;;;;;73.25;23.70;;;;;;;0.25;100.00;103771.38;2569485;30;137042;-39
2022/01/13 08:53:10;;;;;;;79.50;24.10;;;;;;;0.21;100.00;103762.59;2567774;30;137709;-38
2022/01/13 08:55:38;;;;;;;72.45;23.80;;;;;;;0.25;100.00;103758.84;2568266;30;137925;-38
2022/01/13 08:58:05;;;;;;;;;;;;;;;0.23;100.00;103760.72;2569621;30;137687;-39
2022/01/13 09:00:37;;;;;;;76.15;23.02;;;;;;;0.28;100.00;103753.31;2570379;30;138331;-38
2022/01/13 09:03:08;;;;;;;63.78;22.10;;;;;;;0.30;100.00;103764.00;2569030;30;137342;-39
2022/01/13 09:05:38;;;;;;;74.88;22.85;;;;;;;0.31;100.00;103764.84;2568177;30;137135;-39
2022/01/13 09:08:07;;;;;;;72.10;22.60;;;;;;;0.33;100.00;103760.28;2571058;30;137742;-39
2022/01/13 09:10:35;;;;;;;69.93;23.30;;;;;;;0.37;100.00;103768.13;2572395;30;138373;-39
2022/01/13 09:13:03;;;;;;;70.18;21.58;;;;;;;0.42;100.00;103766.09;2571302;30;137383;-39
2022/01/13 09:15:35;;;;;;;73.60;22.42;;;;;;;0.43;100.00;103777.72;2568007;30;138430;-38
2022/01/13 09:20:57;;;;;;;74.82;24.10;;;;;;;0.46;100.00;103776.69;2568978;30;137433;-38
2022/01/13 09:23:25;;;;;;;76.28;22.98;;;;;;;0.47;100.00;103781.13;2569778;30;137524;-38
2022/01/13 09:25:54;;;;;;;73.70;22.67;;;;;;;0.53;100.00;103780.81;2566838;30;137837;-38
2022/01/13 09:28:22;;;;;;;76.63;23.75;;;;;;;0.51;100.00;103780.91;2570028;30;137669;-38
2022/01/13 09:30:50;;;;;;;62.17;21.00;;;;;;;0.52;100.00;103781.75;2566237;30;137533;-38
2022/01/13 09:33:18;;;;;;;;;;;;;;;0.54;100.00;103779.91;2569947;30;137411;-38
2022/01/13 09:35:46;;;;;;;60.75;19.35;;;;;;;0.54;100.00;103779.91;2571085;30;138241;-38
2022/01/13 09:38:14;;;;;;;72.22;22.30;;;;;;;0.54;100.00;103780.75;2569056;30;137651;-39
2022/01/13 09:40:45;;;;;;;;;;;;;;;0.57;100.00;103777.06;2569870;30;137096;-39
2022/01/13 09:43:13;;;;;;;59.08;19.35;;;;;;;0.65;100.00;103776.66;2567731;30;137454;-39
2022/01/13 09:45:41;;;;;;;57.85;19.40;;;;;;;0.66;100.00;103779.28;2568954;30;138343;-38
2022/01/13 09:48:10;;;;;;;59.72;20.33;;;;;;;0.69;100.00;103784.50;2569800;30;136965;-38
2022/01/13 09:50:40;;;;;;;63.67;20.27;;;;;;;0.73;100.00;103778.97;2572352;30;138236;-39
2022/01/13 09:53:08;;;;;;;61.70;20.33;;;;;;;0.71;100.00;103776.38;2571794;30;139169;-38
2022/01/13 09:55:35;;;;;;;;;;;;;;;0.71;100.00;103771.88;2569102;30;137219;-38
2022/01/13 09:58:10;;;;;;;61.22;20.95;;;;;;;0.76;100.00;103773.47;2570396;30;137309;-38
2022/01/13 10:00:40;;;;;;;61.00;19.60;;;;;;;0.81;100.00;103782.19;2567458;30;137731;-39
2022/01/13 10:03:23;;;;;;;52.60;18.45;;;;;;;0.84;100.00;103782.03;2569754;30;137344;-38
2022/01/13 10:05:58;;;;;;;55.40;19.83;;;;;;;0.84;100.00;103780.19;2569705;30;139083;-38
2022/01/13 10:08:47;;;;;;;63.75;20.40;;;;;;;0.89;100.00;103785.38;2569462;30;136716;-39
2022/01/13 10:11:39;;;;;;;59.13;19.30;;;;;;;0.83;100.00;103780.28;2570745;30;139147;-38
2022/01/13 10:14:15;;;;;;;49.55;18.30;;;;;;;0.88;100.00;103786.31;2570027;30;137076;-38
2022/01/13 10:17:07;;;;;;;54.40;19.92;;;;;;;0.95;100.00;103779.69;2566970;30;137961;-39
2022/01/13 10:19:36;;;;;;;64.50;21.85;;;;;;;1.02;100.00;103788.31;2573102;30;138637;-39
2022/01/13 10:22:07;;;;;;;61.42;22.45;;;;;;;1.04;100.00;103788.22;2569365;30;137319;-39
2022/01/13 10:24:40;;;;;;;64.90;22.50;;;;;;;1.07;100.00;103782.72;2570170;30;137743;-38
2022/01/13 10:27:30;;;;;;;59.17;21.05;;;;;;;1.08;100.00;103779.09;2571636;30;138252;-38
2022/01/13 10:30:13;;;;;;;50.83;18.80;;;;;;;1.08;100.00;103779.94;2570153;30;137469;-39
2022/01/13 10:32:43;;;;;;;55.75;19.17;;;;;;;1.06;100.00;103776.44;2569023;30;137516;-38
2022/01/13 10:35:20;;;;;;;57.35;20.27;;;;;;;1.10;100.00;103777.19;2569705;30;137487;-38
2022/01/13 10:37:58;;;;;;;47.03;17.85;;;;;;;1.13;100.00;103775.19;2570591;30;138321;-38
2022/01/13 10:40:33;;;;;;;50.73;17.47;;;;;;;1.22;100.00;103773.84;2569849;30;136761;-38
2022/01/13 10:43:06;;;;;;;51.45;18.75;;;;;;;1.22;100.00;103775.69;2570181;30;138294;-38
2022/01/13 10:45:46;;;;;;;55.20;17.80;;;;;;;1.29;100.00;103774.41;2570288;30;137655;-38
2022/01/13 10:48:28;;;;;;;55.70;20.88;;;;;;;1.31;100.00;103775.22;2569822;30;136807;-38
2022/01/13 10:51:04;;;;;;;50.55;19.17;;;;;;;1.38;100.00;103771.25;2571582;30;137626;-38
2022/01/13 10:53:37;;;;;;;51.33;19.02;;;;;;;1.38;100.00;103765.88;2570814;30;137446;-38
2022/01/13 10:56:09;;;;;;;49.38;19.10;;;;;;;1.47;100.00;103769.91;2570105;30;136970;-38
2022/01/13 10:58:59;;;;;;;51.38;17.92;;;;;;;1.54;100.00;103765.94;2568671;30;137989;-38
2022/01/13 11:01:36;;;;;;;50.72;18.30;;;;;;;1.55;100.00;103761.44;2569692;30;137678;-38
2022/01/13 11:04:15;;;;;;;58.28;20.45;;;;;;;1.64;100.00;103765.47;2570084;30;138414;-39
2022/01/13 11:06:44;;;;;;;49.55;19.30;;;;;;;1.69;100.00;103756.19;2568599;30;138399;-38
2022/01/13 11:09:17;;;;;;;57.67;19.90;;;;;;;1.68;100.00;103756.28;2570933;30;138466;-38
2022/01/13 11:11:46;;;;;;;53.17;19.15;;;;;;;1.63;100.00;103758.34;2566223;30;137231;-38
2022/01/13 11:14:24;;;;;;;56.15;20.52;;;;;;;1.68;100.00;103749.06;2568335;30;138210;-38
2022/01/13 11:16:52;;;;;;;51.15;20.02;;;;;;;1.70;100.00;103748.97;2569349;30;138482;-38
2022/01/13 11:19:20;;;;;;;;;;;;;;;1.75;100.00;103748.75;2570742;30;138124;-39
2022/01/13 11:21:49;;;;;;;49.30;18.92;;;;;;;1.89;100.00;103748.84;2567668;38;137177;-38
2022/01/13 11:24:19;;;;;;;54.00;21.95;;;;;;;1.98;100.00;103753.72;2568458;30;139420;-38
2022/01/13 11:26:47;;;;;;;57.95;21.27;;;;;;;2.01;100.00;103745.50;2569941;30;137580;-38
2022/01/13 11:29:17;;;;;;;56.53;20.27;;;;;;;2.05;100.00;103738.13;2568748;30;139032;-38
2022/01/13 11:31:45;;;;;;;54.45;20.15;;;;;;;2.14;100.00;103731.34;2568837;30;139407;-38
2022/01/13 11:34:17;;;;;;;56.13;21.00;;;;;;;2.22;100.00;103739.03;2570010;30;139287;-38
2022/01/13 11:36:46;;;;;;;58.88;20.83;;;;;;;2.14;100.00;103721.47;2570483;30;137442;-38
2022/01/13 11:39:14;;;;;;;55.13;20.40;;;;;;;2.20;100.00;103724.75;2568221;30;137726;-38
2022/01/13 11:42:03;;;;;;;56.25;22.00;;;;;;;2.21;100.00;103731.88;2569479;30;137638;-38
2022/01/13 11:44:32;;;;;;;54.72;20.58;;;;;;;2.19;99.92;103728.41;2570479;30;137618;-38
2022/01/13 11:47:01;;;;;;;56.80;21.35;;;;;;;2.28;100.00;103728.78;2570003;30;137692;-38
2022/01/13 11:49:44;;;;;;;58.45;22.58;;;;;;;2.33;100.00;103723.09;2571260;30;137011;-39
2022/01/13 11:52:15;;;;;;;47.40;20.90;;;;;;;2.39;100.00;103719.19;2566714;30;137235;-39
2022/01/13 11:54:43;;;;;;;51.30;20.25;;;;;;;2.42;99.90;103719.03;2567903;30;137123;-38
2022/01/13 11:57:36;;;;;;;58.40;20.67;;;;;;;2.49;99.48;103716.84;2571740;30;137003;-38
2022/01/13 12:00:07;;;;;;;56.75;22.48;;;;;;;2.46;98.90;103706.25;2569703;30;138414;-39
2022/01/13 12:02:43;;;;;;;56.83;21.65;;;;;;;2.48;97.56;103707.03;2569541;30;137857;-39
2022/01/13 12:05:20;;;;;;;62.13;21.13;;;;;;;2.38;98.17;103701.28;2568817;30;138070;-38
2022/01/13 12:07:50;;;;;;;56.92;22.02;;;;;;;2.38;98.92;103706.69;2566675;30;137645;-38